Time;durP1;ratioP1;P1;durP2;ratioP2;P2;SDS_P1;SDS_P2;PMS_P1;PMS_P2;Temp;Humidity;BMP_temperature;BMP_pressure;BME280_temperature;BME280_humidity;BME280_pressure;Samples;Min_cycle;Max_cycle;Signal;HPM_P1;HPM_P2
2023/03/08 00:01:44;;;;;;;10.55;4.75;;;;;;;;;;10369886;28;20037;-58
2023/03/08 00:06:45;;;;;;;8.55;4.20;;;;;;;;;;10369736;28;20030;-58
2023/03/08 00:11:45;;;;;;;8.68;4.57;;;;;;;;;;10369366;28;20068;-59
2023/03/08 00:16:46;;;;;;;8.60;4.82;;;;;;;;;;10369454;28;20029;-59
2023/03/08 00:21:46;;;;;;;5.65;4.38;;;;;;;;;;10368573;28;20359;-59
2023/03/08 00:26:47;;;;;;;6.93;4.45;;;;;;;;;;10368505;28;20034;-59
2023/03/08 00:31:47;;;;;;;4.88;3.85;;;;;;;;;;10368158;28;20034;-59
2023/03/08 00:36:48;;;;;;;5.93;4.40;;;;;;;;;;10368297;28;20033;-59
2023/03/08 00:41:49;;;;;;;5.40;3.95;;;;;;;;;;10368286;28;20573;-59
2023/03/08 00:46:49;;;;;;;6.78;4.45;;;;;;;;;;10367762;28;20061;-59
2023/03/08 00:51:50;;;;;;;6.78;4.43;;;;;;;;;;10366898;28;20084;-60
2023/03/08 00:56:50;;;;;;;6.78;3.85;;;;;;;;;;10367617;28;20045;-59
2023/03/08 01:01:51;;;;;;;6.95;4.03;;;;;;;;;;10367983;28;20385;-58
2023/03/08 01:06:51;;;;;;;4.40;3.88;;;;;;;;;;10368064;28;20522;-58
2023/03/08 01:11:52;;;;;;;7.88;4.22;;;;;;;;;;10367578;28;20030;-58
2023/03/08 01:16:52;;;;;;;5.97;3.78;;;;;;;;;;10367733;28;20296;-57
2023/03/08 01:21:53;;;;;;;5.22;4.25;;;;;;;;;;10367528;28;20042;-57
2023/03/08 01:26:57;;;;;;;8.23;3.88;;;;;;;;;;10367579;28;20034;-57
2023/03/08 01:31:58;;;;;;;8.35;4.05;;;;;;;;;;10367283;28;20046;-58
2023/03/08 01:36:58;;;;;;;6.97;3.80;;;;;;;;;;10367265;28;20026;-58
2023/03/08 01:42:06;;;;;;;6.80;4.03;;;;;;;;;;10366664;28;20038;-57
2023/03/08 01:47:17;;;;;;;4.93;3.67;;;;;;;;;;10366615;28;20050;-55
2023/03/08 01:52:24;;;;;;;9.27;4.22;;;;;;;;;;10349983;28;20033;-58
2023/03/08 01:57:40;;;;;;;5.43;3.95;;;;;;;;;;10365558;28;20457;-58
2023/03/08 02:02:55;;;;;;;7.22;4.53;;;;;;;;;;10369453;28;20084;-58
2023/03/08 02:07:56;;;;;;;4.50;3.85;;;;;;;;;;10374248;28;20350;-58
2023/03/08 02:12:56;;;;;;;7.20;4.03;;;;;;;;;;10373514;28;20034;-58
2023/03/08 02:17:57;;;;;;;4.82;3.47;;;;;;;;;;10372700;28;20030;-58
2023/03/08 02:23:17;;;;;;;8.02;3.53;;;;;;;;;;10372922;28;20026;-58
2023/03/08 02:28:21;;;;;;;7.53;3.40;;;;;;;;;;10373040;28;20533;-58
2023/03/08 02:33:22;;;;;;;4.40;3.45;;;;;;;;;;10373249;28;20038;-57
2023/03/08 02:38:23;;;;;;;10.93;3.65;;;;;;;;;;10372397;28;20547;-58
2023/03/08 02:43:23;;;;;;;8.18;3.88;;;;;;;;;;10372134;28;20053;-58
2023/03/08 02:48:24;;;;;;;5.63;3.60;;;;;;;;;;10372179;28;20037;-58
2023/03/08 02:53:25;;;;;;;5.82;3.60;;;;;;;;;;10372045;28;20161;-58
2023/03/08 02:58:25;;;;;;;4.57;3.95;;;;;;;;;;10372437;28;20036;-58
2023/03/08 03:03:26;;;;;;;5.40;3.58;;;;;;;;;;10371925;28;20045;-57
2023/03/08 03:08:29;;;;;;;4.82;3.42;;;;;;;;;;10371477;28;20053;-58
2023/03/08 03:13:30;;;;;;;4.00;3.60;;;;;;;;;;10370393;28;20445;-59
2023/03/08 03:18:30;;;;;;;5.28;3.65;;;;;;;;;;10371148;28;20029;-58
2023/03/08 03:23:31;;;;;;;8.73;4.03;;;;;;;;;;10370965;28;20026;-58
2023/03/08 03:28:31;;;;;;;5.93;3.65;;;;;;;;;;10371260;28;20029;-60
2023/03/08 03:33:32;;;;;;;5.93;4.13;;;;;;;;;;10370542;28;20200;-58
2023/03/08 03:38:33;;;;;;;8.85;3.75;;;;;;;;;;10370446;28;20409;-57
2023/03/08 03:43:34;;;;;;;7.20;3.80;;;;;;;;;;10370135;28;20397;-56
2023/03/08 03:48:35;;;;;;;6.45;4.30;;;;;;;;;;10370327;28;20037;-53
2023/03/08 03:53:36;;;;;;;5.05;3.97;;;;;;;;;;10370369;28;20454;-58
2023/03/08 03:58:36;;;;;;;5.88;4.20;;;;;;;;;;10368830;28;20057;-58
2023/03/08 04:03:37;;;;;;;5.57;4.03;;;;;;;;;;10369497;28;20053;-57
2023/03/08 04:08:40;;;;;;;7.80;4.45;;;;;;;;;;10369882;28;20026;-58
2023/03/08 04:13:41;;;;;;;5.30;3.95;;;;;;;;;;10369448;28;20022;-57
2023/03/08 04:18:43;;;;;;;6.43;3.88;;;;;;;;;;10369016;28;20026;-58
2023/03/08 04:23:43;;;;;;;6.55;4.40;;;;;;;;;;10369116;28;20049;-58
2023/03/08 04:28:44;;;;;;;6.90;4.43;;;;;;;;;;10368489;28;20061;-57
2023/03/08 04:33:45;;;;;;;5.75;4.32;;;;;;;;;;10368733;28;20030;-59
2023/03/08 04:38:48;;;;;;;4.75;3.92;;;;;;;;;;10369374;28;20372;-59
2023/03/08 04:43:51;;;;;;;5.55;4.22;;;;;;;;;;10368090;28;20269;-59
2023/03/08 04:48:54;;;;;;;5.70;4.35;;;;;;;;;;10368650;28;20060;-59
2023/03/08 04:53:55;;;;;;;4.75;3.90;;;;;;;;;;10367993;28;20025;-58
2023/03/08 04:58:55;;;;;;;5.00;4.47;;;;;;;;;;10367989;28;20030;-57
2023/03/08 05:03:56;;;;;;;6.00;4.18;;;;;;;;;;10367565;28;20057;-58
2023/03/08 05:08:56;;;;;;;6.45;4.95;;;;;;;;;;10368269;28;20370;-58
2023/03/08 05:13:58;;;;;;;5.07;4.45;;;;;;;;;;10367846;28;20029;-57
2023/03/08 05:18:59;;;;;;;6.75;4.47;;;;;;;;;;10367292;28;20092;-57
2023/03/08 05:23:59;;;;;;;5.10;3.72;;;;;;;;;;10367336;28;20026;-58
2023/03/08 05:29:02;;;;;;;5.60;4.70;;;;;;;;;;10367871;28;20032;-59
2023/03/08 05:34:02;;;;;;;5.70;4.40;;;;;;;;;;10367409;28;20041;-59
2023/03/08 05:39:05;;;;;;;5.57;4.22;;;;;;;;;;10373146;28;20033;-59
2023/03/08 05:44:06;;;;;;;5.72;4.15;;;;;;;;;;10374602;28;20509;-58
2023/03/08 05:49:06;;;;;;;6.28;4.40;;;;;;;;;;10375204;28;20069;-59
2023/03/08 05:54:07;;;;;;;6.15;4.32;;;;;;;;;;10374458;28;20455;-57
2023/03/08 05:59:08;;;;;;;5.95;4.38;;;;;;;;;;10374262;28;20026;-57
2023/03/08 06:04:08;;;;;;;4.55;4.03;;;;;;;;;;10374310;28;20030;-58
2023/03/08 06:09:09;;;;;;;4.95;4.15;;;;;;;;;;10374182;28;20188;-57
2023/03/08 06:14:10;;;;;;;4.38;3.45;;;;;;;;;;10373773;28;20037;-57
2023/03/08 06:19:11;;;;;;;5.20;3.75;;;;;;;;;;10374147;28;20088;-57
2023/03/08 06:24:11;;;;;;;5.20;3.75;;;;;;;;;;10373848;28;20037;-57
2023/03/08 06:29:12;;;;;;;13.73;4.40;;;;;;;;;;10373498;28;20037;-59
2023/03/08 06:34:12;;;;;;;12.07;4.78;;;;;;;;;;10372623;28;20029;-59
2023/03/08 06:39:13;;;;;;;9.68;4.60;;;;;;;;;;10372667;28;20030;-57
2023/03/08 06:44:14;;;;;;;5.85;4.95;;;;;;;;;;10372494;28;20057;-58
2023/03/08 06:49:14;;;;;;;8.88;5.82;;;;;;;;;;10370484;28;20100;-57
2023/03/08 06:54:16;;;;;;;10.57;5.80;;;;;;;;;;10371780;28;20034;-59
2023/03/08 06:59:17;;;;;;;19.77;5.93;;;;;;;;;;10371381;28;20022;-58
2023/03/08 07:04:17;;;;;;;13.23;5.85;;;;;;;;;;10370681;28;20030;-58
2023/03/08 07:09:18;;;;;;;12.05;6.28;;;;;;;;;;10371398;28;20033;-58
2023/03/08 07:14:18;;;;;;;10.13;6.15;;;;;;;;;;10371736;28;20095;-58
2023/03/08 07:19:19;;;;;;;8.82;5.95;;;;;;;;;;10371817;28;20025;-58
2023/03/08 07:24:19;;;;;;;12.57;6.07;;;;;;;;;;10371041;28;20037;-58
2023/03/08 07:29:20;;;;;;;15.82;6.55;;;;;;;;;;10371297;28;20504;-57
2023/03/08 07:34:20;;;;;;;13.57;6.47;;;;;;;;;;10369650;28;20458;-57
2023/03/08 07:39:21;;;;;;;14.75;6.38;;;;;;;;;;10370519;28;20026;-58
2023/03/08 07:44:22;;;;;;;9.73;6.53;;;;;;;;;;10370401;28;20060;-58
2023/03/08 07:49:23;;;;;;;11.85;6.45;;;;;;;;;;10370224;28;20030;-58
2023/03/08 07:54:23;;;;;;;8.95;5.95;;;;;;;;;;10370755;28;20053;-58
2023/03/08 07:59:24;;;;;;;9.52;6.82;;;;;;;;;;10369616;28;20409;-57
2023/03/08 08:04:25;;;;;;;8.02;6.10;;;;;;;;;;10369945;28;20037;-58
2023/03/08 08:09:25;;;;;;;16.10;7.28;;;;;;;;;;10369307;28;20030;-57
2023/03/08 08:14:26;;;;;;;9.80;6.53;;;;;;;;;;10368939;28;20093;-58
2023/03/08 08:19:26;;;;;;;9.65;6.10;;;;;;;;;;10369157;28;20026;-57
2023/03/08 08:24:27;;;;;;;9.48;5.90;;;;;;;;;;10369415;28;20225;-59
2023/03/08 08:29:28;;;;;;;10.18;6.28;;;;;;;;;;10369209;28;20492;-58
2023/03/08 08:34:28;;;;;;;10.43;6.07;;;;;;;;;;10369405;28;20436;-57
2023/03/08 08:39:29;;;;;;;10.40;6.28;;;;;;;;;;10368462;28;20385;-57
2023/03/08 08:44:29;;;;;;;13.65;6.38;;;;;;;;;;10368032;28;20049;-59
2023/03/08 08:49:30;;;;;;;11.68;5.90;;;;;;;;;;10368534;28;20057;-57
2023/03/08 08:54:32;;;;;;;8.73;5.63;;;;;;;;;;10368871;28;20385;-58
2023/03/08 08:59:33;;;;;;;8.98;5.85;;;;;;;;;;10367530;28;20029;-58
2023/03/08 09:04:34;;;;;;;9.98;6.30;;;;;;;;;;10368212;28;20121;-59
2023/03/08 09:09:34;;;;;;;9.65;5.90;;;;;;;;;;10368147;28;20022;-58
2023/03/08 09:14:35;;;;;;;7.70;5.57;;;;;;;;;;10374734;28;20034;-58
2023/03/08 09:19:36;;;;;;;8.00;5.50;;;;;;;;;;10376289;28;20084;-58
2023/03/08 09:24:37;;;;;;;7.13;5.07;;;;;;;;;;10375553;28;20477;-58
2023/03/08 09:29:37;;;;;;;9.35;5.85;;;;;;;;;;10375620;28;20385;-59
2023/03/08 09:34:38;;;;;;;9.02;5.60;;;;;;;;;;10375062;28;20371;-57
2023/03/08 09:39:39;;;;;;;10.63;6.00;;;;;;;;;;10375035;28;20033;-57
2023/03/08 09:45:21;;;;;;;7.88;5.30;;;;;;;;;;10375066;28;20116;-58
2023/03/08 09:50:40;;;;;;;6.15;4.88;;;;;;;;;;10373796;28;20099;-57
2023/03/08 09:55:55;;;;;;;10.43;5.45;;;;;;;;;;10374516;28;20512;-57
2023/03/08 10:01:19;;;;;;;9.35;5.80;;;;;;;;;;10373746;28;20030;-57
2023/03/08 10:06:34;;;;;;;10.05;5.38;;;;;;;;;;10373987;28;20026;-57
2023/03/08 10:12:10;;;;;;;8.57;5.75;;;;;;;;;;10373962;28;20405;-57
2023/03/08 10:17:16;;;;;;;7.43;5.43;;;;;;;;;;10373027;28;20275;-57
2023/03/08 10:22:38;;;;;;;9.05;6.00;;;;;;;;;;10373087;28;20053;-57
2023/03/08 10:27:38;;;;;;;7.93;5.65;;;;;;;;;;10373898;28;20038;-57
2023/03/08 10:32:46;;;;;;;7.57;4.88;;;;;;;;;;10373463;28;20473;-57
2023/03/08 10:37:50;;;;;;;8.10;5.07;;;;;;;;;;10372986;28;20033;-57
2023/03/08 10:43:04;;;;;;;8.15;5.22;;;;;;;;;;10372990;28;20029;-57
2023/03/08 10:48:05;;;;;;;11.80;5.18;;;;;;;;;;10372585;28;20444;-57
2023/03/08 10:53:17;;;;;;;9.82;5.00;;;;;;;;;;10372275;28;20144;-57
2023/03/08 10:58:38;;;;;;;6.10;4.88;;;;;;;;;;10372716;28;20034;-58
2023/03/08 11:03:39;;;;;;;5.97;4.82;;;;;;;;;;10372407;28;20026;-57
2023/03/08 11:08:55;;;;;;;6.88;4.78;;;;;;;;;;10372364;28;20033;-58
2023/03/08 11:13:56;;;;;;;6.80;4.70;;;;;;;;;;10371531;28;20358;-57
2023/03/08 11:19:40;;;;;;;7.90;4.80;;;;;;;;;;10371932;28;20029;-58
2023/03/08 11:24:59;;;;;;;7.10;4.63;;;;;;;;;;10370636;28;20029;-58
2023/03/08 11:30:41;;;;;;;5.85;4.82;;;;;;;;;;10371256;28;20045;-57
2023/03/08 11:36:06;;;;;;;9.07;4.75;;;;;;;;;;10369765;28;20112;-57
2023/03/08 11:41:13;;;;;;;7.57;4.35;;;;;;;;;;10370640;28;20030;-58
2023/03/08 11:46:26;;;;;;;7.53;4.43;;;;;;;;;;10370289;28;20133;-57
2023/03/08 11:52:00;;;;;;;8.95;4.43;;;;;;;;;;10370126;28;20323;-56
2023/03/08 11:57:04;;;;;;;7.65;4.40;;;;;;;;;;10344828;28;20053;-57
2023/03/08 12:02:05;;;;;;;6.85;4.45;;;;;;;;;;10370275;28;20492;-57
2023/03/08 12:07:18;;;;;;;7.47;4.40;;;;;;;;;;10369666;28;20029;-57
2023/03/08 12:13:00;;;;;;;4.97;4.00;;;;;;;;;;10368199;28;20034;-57
2023/03/08 12:18:19;;;;;;;6.03;4.22;;;;;;;;;;10368777;28;20576;-57
2023/03/08 12:23:50;;;;;;;6.30;4.10;;;;;;;;;;10367796;28;20030;-57
2023/03/08 12:29:01;;;;;;;6.38;4.32;;;;;;;;;;10368329;28;20053;-58
2023/03/08 12:34:27;;;;;;;8.55;4.50;;;;;;;;;;10368019;28;20049;-58
2023/03/08 12:39:35;;;;;;;5.57;4.03;;;;;;;;;;10367377;28;20034;-57
2023/03/08 12:44:37;;;;;;;6.47;4.28;;;;;;;;;;10368461;28;20042;-57
2023/03/08 12:49:42;;;;;;;6.72;4.50;;;;;;;;;;10367193;28;20470;-57
2023/03/08 12:54:58;;;;;;;7.03;4.35;;;;;;;;;;10367125;28;20045;-58
2023/03/08 13:00:09;;;;;;;10.40;4.60;;;;;;;;;;10366750;28;20390;-59
2023/03/08 13:05:30;;;;;;;7.82;4.72;;;;;;;;;;10367171;28;20041;-58
2023/03/08 13:10:49;;;;;;;7.88;4.50;;;;;;;;;;10368383;28;20083;-58
2023/03/08 13:15:49;;;;;;;6.75;4.20;;;;;;;;;;10368091;28;20042;-57
2023/03/08 13:21:25;;;;;;;8.02;4.50;;;;;;;;;;10368035;28;20030;-58
2023/03/08 13:26:41;;;;;;;4.80;3.97;;;;;;;;;;10367908;28;20028;-58
2023/03/08 13:31:44;;;;;;;5.78;3.70;;;;;;;;;;10367764;28;20045;-57
2023/03/08 13:36:47;;;;;;;6.25;4.57;;;;;;;;;;10365034;28;20049;-57
2023/03/08 13:41:48;;;;;;;5.38;4.20;;;;;;;;;;10367134;28;20044;-58
2023/03/08 13:46:55;;;;;;;8.35;4.57;;;;;;;;;;10366124;28;20476;-58
2023/03/08 13:51:59;;;;;;;6.65;4.15;;;;;;;;;;10366531;28;20018;-56
2023/03/08 13:57:04;;;;;;;6.88;4.55;;;;;;;;;;10366615;28;20037;-58
2023/03/08 14:02:22;;;;;;;6.50;4.30;;;;;;;;;;10373813;28;20418;-57
2023/03/08 14:07:31;;;;;;;6.38;4.10;;;;;;;;;;10374535;28;20030;-58
2023/03/08 14:12:33;;;;;;;6.03;3.85;;;;;;;;;;10372554;28;20030;-57
2023/03/08 14:17:34;;;;;;;8.25;3.90;;;;;;;;;;10374443;28;20021;-56
2023/03/08 14:22:38;;;;;;;6.13;3.95;;;;;;;;;;10374115;28;20061;-57
2023/03/08 14:27:41;;;;;;;6.28;4.13;;;;;;;;;;10373485;28;20478;-58
2023/03/08 14:32:58;;;;;;;5.53;4.00;;;;;;;;;;10373573;28;20280;-58
2023/03/08 14:37:59;;;;;;;5.40;4.22;;;;;;;;;;10372855;28;20522;-58
2023/03/08 14:43:05;;;;;;;7.80;4.18;;;;;;;;;;10373053;28;20096;-57
2023/03/08 14:48:36;;;;;;;6.70;4.22;;;;;;;;;;10372755;28;20058;-57
2023/03/08 14:53:40;;;;;;;5.30;3.72;;;;;;;;;;10364114;28;20124;-57
2023/03/08 14:58:45;;;;;;;7.50;3.97;;;;;;;;;;10372211;28;20389;-57
2023/03/08 15:03:46;;;;;;;6.63;3.78;;;;;;;;;;10371230;28;20030;-57
2023/03/08 15:08:47;;;;;;;8.52;4.07;;;;;;;;;;10371041;28;20022;-57
2023/03/08 15:13:48;;;;;;;4.68;3.97;;;;;;;;;;10371893;28;20165;-56
2023/03/08 15:18:49;;;;;;;7.47;3.80;;;;;;;;;;10372145;28;20056;-57
2023/03/08 15:23:50;;;;;;;6.38;3.88;;;;;;;;;;10371994;28;20033;-55
2023/03/08 15:28:50;;;;;;;5.57;4.10;;;;;;;;;;10371286;28;20033;-56
2023/03/08 15:33:51;;;;;;;7.53;3.97;;;;;;;;;;10370917;28;20045;-57
2023/03/08 15:38:52;;;;;;;5.18;4.15;;;;;;;;;;10370972;28;20385;-56
2023/03/08 15:43:53;;;;;;;5.38;4.05;;;;;;;;;;10371008;28;20050;-56
2023/03/08 15:48:54;;;;;;;6.45;4.35;;;;;;;;;;10370523;28;20107;-57
2023/03/08 15:53:54;;;;;;;6.60;3.92;;;;;;;;;;10370342;28;20083;-57
2023/03/08 15:58:55;;;;;;;6.07;3.60;;;;;;;;;;10369749;28;20045;-55
2023/03/08 16:03:56;;;;;;;5.78;4.18;;;;;;;;;;10370109;28;20030;-56
2023/03/08 16:08:57;;;;;;;5.53;3.90;;;;;;;;;;10369697;28;20030;-57
2023/03/08 16:13:57;;;;;;;7.45;4.05;;;;;;;;;;10369207;28;20448;-56
2023/03/08 16:18:58;;;;;;;11.52;3.92;;;;;;;;;;10369807;28;20026;-56
2023/03/08 16:24:01;;;;;;;5.55;4.20;;;;;;;;;;10368934;28;20030;-57
2023/03/08 16:29:01;;;;;;;7.57;4.32;;;;;;;;;;10368875;28;20371;-56
2023/03/08 16:34:03;;;;;;;6.05;4.18;;;;;;;;;;10368493;28;20026;-56
2023/03/08 16:39:05;;;;;;;13.32;4.85;;;;;;;;;;10368565;28;20026;-56
2023/03/08 16:44:14;;;;;;;5.22;3.83;;;;;;;;;;10368574;28;20129;-56
2023/03/08 16:49:18;;;;;;;4.38;3.70;;;;;;;;;;10368386;28;20105;-56
2023/03/08 16:54:18;;;;;;;7.07;4.03;;;;;;;;;;10368905;28;20029;-56
2023/03/08 16:59:19;;;;;;;4.80;3.85;;;;;;;;;;10368471;28;20026;-56
2023/03/08 17:04:21;;;;;;;5.55;3.75;;;;;;;;;;10367706;28;20029;-56
2023/03/08 17:09:22;;;;;;;4.97;3.90;;;;;;;;;;10368248;28;20032;-56
2023/03/08 17:14:23;;;;;;;7.43;3.90;;;;;;;;;;10368193;28;20037;-57
2023/03/08 17:19:23;;;;;;;5.57;3.65;;;;;;;;;;10367557;28;20434;-57
2023/03/08 17:24:26;;;;;;;10.77;4.55;;;;;;;;;;10367582;28;20033;-57
2023/03/08 17:29:27;;;;;;;6.65;4.35;;;;;;;;;;10367846;28;20026;-58
2023/03/08 17:34:27;;;;;;;5.38;3.80;;;;;;;;;;10371802;28;20389;-59
2023/03/08 17:39:28;;;;;;;6.03;4.32;;;;;;;;;;10375107;28;20033;-58
2023/03/08 17:44:29;;;;;;;9.00;4.50;;;;;;;;;;10374391;28;20061;-58
2023/03/08 17:49:29;;;;;;;10.65;4.25;;;;;;;;;;10374236;28;20030;-58
2023/03/08 17:54:30;;;;;;;4.93;4.00;;;;;;;;;;10374771;28;20038;-57
2023/03/08 17:59:30;;;;;;;5.47;4.40;;;;;;;;;;10375292;28;20029;-58
2023/03/08 18:04:31;;;;;;;6.15;4.15;;;;;;;;;;10374052;28;20076;-58
2023/03/08 18:09:31;;;;;;;6.75;4.43;;;;;;;;;;10374462;28;20029;-57
2023/03/08 18:14:32;;;;;;;5.07;3.92;;;;;;;;;;10373796;28;20033;-57
2023/03/08 18:19:33;;;;;;;4.97;4.13;;;;;;;;;;10373407;28;20032;-57
2023/03/08 18:24:34;;;;;;;10.32;5.05;;;;;;;;;;10371872;28;20025;-57
2023/03/08 18:29:35;;;;;;;6.32;4.05;;;;;;;;;;10373837;28;20029;-58
2023/03/08 18:34:37;;;;;;;8.95;3.92;;;;;;;;;;10372863;28;20037;-58
2023/03/08 18:39:38;;;;;;;5.50;4.32;;;;;;;;;;10372404;28;20034;-58
2023/03/08 18:44:38;;;;;;;8.05;4.10;;;;;;;;;;10369688;28;20401;-57
2023/03/08 18:49:40;;;;;;;6.15;4.10;;;;;;;;;;10367965;28;20034;-58
2023/03/08 18:54:43;;;;;;;5.55;4.32;;;;;;;;;;10369840;28;20117;-57
2023/03/08 18:59:45;;;;;;;7.38;4.03;;;;;;;;;;10372565;28;20088;-57
2023/03/08 19:04:46;;;;;;;6.38;4.03;;;;;;;;;;10371698;28;20508;-57
2023/03/08 19:09:46;;;;;;;6.85;3.80;;;;;;;;;;10370924;28;20025;-57
2023/03/08 19:14:48;;;;;;;7.43;4.22;;;;;;;;;;10371373;28;20030;-56
2023/03/08 19:19:49;;;;;;;6.07;4.20;;;;;;;;;;10370822;28;20140;-57
2023/03/08 19:24:49;;;;;;;14.70;4.38;;;;;;;;;;10372016;28;20021;-57
2023/03/08 19:29:50;;;;;;;27.42;6.53;;;;;;;;;;10371429;28;20021;-57
2023/03/08 19:34:50;;;;;;;21.85;6.22;;;;;;;;;;10370990;28;20033;-58
2023/03/08 19:39:51;;;;;;;20.45;5.60;;;;;;;;;;10370905;28;20037;-58
2023/03/08 19:44:52;;;;;;;21.02;5.60;;;;;;;;;;10370401;28;20616;-57
2023/03/08 19:49:52;;;;;;;16.13;5.18;;;;;;;;;;10370591;28;20061;-59
2023/03/08 19:54:53;;;;;;;11.88;5.07;;;;;;;;;;10369513;28;20474;-58
2023/03/08 19:59:54;;;;;;;11.73;5.50;;;;;;;;;;10369669;28;20033;-58
2023/03/08 20:04:54;;;;;;;14.73;5.32;;;;;;;;;;10368999;28;20070;-57
2023/03/08 20:09:55;;;;;;;13.25;5.47;;;;;;;;;;10369562;28;20026;-58
2023/03/08 20:14:56;;;;;;;8.68;4.75;;;;;;;;;;10368743;28;20022;-58
2023/03/08 20:19:56;;;;;;;11.73;4.90;;;;;;;;;;10369362;28;20030;-57
2023/03/08 20:24:57;;;;;;;10.70;4.43;;;;;;;;;;10369276;28;20037;-58
2023/03/08 20:29:57;;;;;;;11.35;4.38;;;;;;;;;;10369314;28;20021;-57
2023/03/08 20:34:58;;;;;;;8.15;4.60;;;;;;;;;;10369455;28;20050;-57
2023/03/08 20:40:00;;;;;;;8.27;4.60;;;;;;;;;;10368647;28;20026;-57
2023/03/08 20:45:03;;;;;;;9.90;3.72;;;;;;;;;;10367526;28;20056;-58
2023/03/08 20:50:05;;;;;;;8.90;4.32;;;;;;;;;;10368686;28;20041;-57
2023/03/08 20:55:05;;;;;;;9.60;4.25;;;;;;;;;;10367619;28;20034;-57
2023/03/08 21:00:08;;;;;;;7.82;4.50;;;;;;;;;;10368270;28;20481;-56
2023/03/08 21:05:09;;;;;;;7.95;3.78;;;;;;;;;;10368139;28;20033;-57
2023/03/08 21:10:10;;;;;;;9.23;4.00;;;;;;;;;;10367263;28;20120;-57
2023/03/08 21:15:11;;;;;;;5.40;3.53;;;;;;;;;;10367509;28;20474;-56
2023/03/08 21:20:11;;;;;;;6.47;3.92;;;;;;;;;;10368245;28;20033;-56
2023/03/08 21:25:12;;;;;;;8.73;4.05;;;;;;;;;;10367308;28;20026;-57
2023/03/08 21:30:12;;;;;;;6.03;3.60;;;;;;;;;;10367434;28;20037;-57
2023/03/08 21:35:13;;;;;;;8.40;3.70;;;;;;;;;;10366987;28;20095;-58
2023/03/08 21:40:14;;;;;;;8.38;3.67;;;;;;;;;;10367825;28;20038;-58
2023/03/08 21:45:14;;;;;;;7.47;3.78;;;;;;;;;;10366891;28;20100;-58
2023/03/08 21:50:15;;;;;;;5.57;3.53;;;;;;;;;;10366737;28;20486;-57
2023/03/08 21:55:18;;;;;;;5.68;3.40;;;;;;;;;;10366383;28;20077;-59
2023/03/08 22:00:19;;;;;;;6.70;3.83;;;;;;;;;;10366303;28;20030;-58
2023/03/08 22:05:20;;;;;;;9.88;4.00;;;;;;;;;;10365956;28;20481;-53
2023/03/08 22:10:21;;;;;;;7.15;3.55;;;;;;;;;;10366689;28;20051;-55
2023/03/08 22:15:23;;;;;;;4.82;3.33;;;;;;;;;;10366089;28;20486;-53
2023/03/08 22:20:23;;;;;;;9.20;3.85;;;;;;;;;;10370960;28;20021;-53
2023/03/08 22:25:24;;;;;;;13.25;3.60;;;;;;;;;;10373208;28;20018;-57
2023/03/08 22:30:25;;;;;;;10.85;3.65;;;;;;;;;;10372922;28;20095;-56
2023/03/08 22:35:26;;;;;;;9.45;3.35;;;;;;;;;;10372758;28;20485;-56
2023/03/08 22:40:26;;;;;;;5.97;3.67;;;;;;;;;;10373032;28;20022;-57
2023/03/08 22:45:28;;;;;;;5.00;3.38;;;;;;;;;;10372330;28;20046;-58
2023/03/08 22:50:29;;;;;;;7.68;3.50;;;;;;;;;;10372759;28;20030;-58
2023/03/08 22:55:29;;;;;;;9.00;3.78;;;;;;;;;;10372282;28;20022;-60
2023/03/08 23:00:30;;;;;;;6.50;3.88;;;;;;;;;;10372457;28;20030;-58
2023/03/08 23:05:31;;;;;;;7.55;3.50;;;;;;;;;;10372225;28;20029;-58
2023/03/08 23:10:33;;;;;;;11.90;3.40;;;;;;;;;;10371570;28;20026;-59
2023/03/08 23:15:34;;;;;;;7.90;3.50;;;;;;;;;;10371675;28;20033;-58
2023/03/08 23:20:34;;;;;;;7.80;3.47;;;;;;;;;;10371430;28;20021;-51
2023/03/08 23:25:39;;;;;;;5.95;3.53;;;;;;;;;;10371711;28;20272;-58
2023/03/08 23:30:41;;;;;;;5.38;3.58;;;;;;;;;;10370960;28;20030;-58
2023/03/08 23:35:46;;;;;;;5.72;3.58;;;;;;;;;;10371158;28;20038;-55
2023/03/08 23:40:46;;;;;;;7.07;4.00;;;;;;;;;;10370618;28;20115;-56
2023/03/08 23:45:47;;;;;;;7.10;3.78;;;;;;;;;;10370278;28;20433;-57
2023/03/08 23:50:47;;;;;;;6.50;4.13;;;;;;;;;;10370296;28;20390;-55
2023/03/08 23:55:48;;;;;;;8.88;4.25;;;;;;;;;;10370487;28;20482;-54
